Time;durP1;ratioP1;P1;durP2;ratioP2;P2;SDS_P1;SDS_P2;PMS_P1;PMS_P2;Temp;Humidity;BMP_temperature;BMP_pressure;BME280_temperature;BME280_humidity;BME280_pressure;Samples;Min_cycle;Max_cycle;Signal;HPM_P1;HPM_P2
2022/06/12 00:01:42;;;;;;;14.47;8.88;;;;;;;16.37;59.85;100814.33;2153624;82;28867;-57
2022/06/12 00:04:44;;;;;;;10.00;8.10;;;;;;;16.40;59.81;100806.02;2182343;81;31854;-57
2022/06/12 00:07:48;;;;;;;14.15;8.63;;;;;;;16.40;59.81;100806.02;2153281;82;34200;-57
2022/06/12 00:10:53;;;;;;;12.03;7.60;;;;;;;16.44;59.79;100800.41;2153524;82;30552;-59
2022/06/12 00:14:00;;;;;;;10.35;7.87;;;;;;;16.44;59.95;100803.97;2153881;82;27645;-57
2022/06/12 00:17:05;;;;;;;11.12;7.10;;;;;;;16.44;59.84;100810.73;2153777;82;28657;-57
2022/06/12 00:20:09;;;;;;;11.28;7.05;;;;;;;16.45;59.86;100803.50;2153874;82;31010;-57
2022/06/12 00:23:16;;;;;;;13.15;9.03;;;;;;;16.45;60.01;100798.09;2153750;82;32951;-57
2022/06/12 00:26:29;;;;;;;12.07;8.35;;;;;;;16.47;60.11;100798.83;2182749;81;29488;-56
2022/06/12 00:29:35;;;;;;;13.18;8.30;;;;;;;16.49;60.29;100800.48;2182706;81;27590;-56
2022/06/12 00:32:38;;;;;;;14.47;9.20;;;;;;;16.49;60.29;100800.48;2182712;81;28697;-57
2022/06/12 00:35:40;;;;;;;11.53;8.33;;;;;;;16.44;60.41;100774.22;2182585;81;31180;-56
2022/06/12 00:38:43;;;;;;;12.73;8.55;;;;;;;16.53;60.54;100793.02;2182265;81;34249;-56
2022/06/12 00:41:48;;;;;;;11.22;8.43;;;;;;;16.55;60.62;100789.73;2182259;81;30550;-56
2022/06/12 00:44:53;;;;;;;10.03;7.53;;;;;;;16.57;60.67;100793.20;2182680;81;27709;-58
2022/06/12 00:47:59;;;;;;;;;;;;;;;16.49;60.72;100770.73;2185264;81;28694;-57
2022/06/12 00:51:17;;;;;;;18.17;8.53;;;;;;;16.62;61.03;100784.77;2182558;81;31035;-57
2022/06/12 00:54:21;;;;;;;10.38;8.23;;;;;;;16.65;60.92;100779.16;2172650;80;33185;-57
2022/06/12 00:57:25;;;;;;;18.05;8.63;;;;;;;16.65;60.92;100779.16;2134515;83;29577;-56
2022/06/12 01:00:27;;;;;;;13.95;8.73;;;;;;;16.66;60.98;100787.66;2134459;83;27554;-57
2022/06/12 01:03:30;;;;;;;16.12;9.78;;;;;;;16.67;60.97;100779.93;2133944;83;28668;-56
2022/06/12 01:06:33;;;;;;;20.65;9.20;;;;;;;16.66;60.87;100784.95;2133901;83;31897;-57
2022/06/12 01:09:39;;;;;;;14.60;8.95;;;;;;;16.65;60.95;100773.75;2134231;83;33794;-57
2022/06/12 01:12:49;;;;;;;13.13;8.88;;;;;;;16.62;60.95;100780.72;2134267;83;29324;-56
2022/06/12 01:16:01;;;;;;;12.30;8.25;;;;;;;16.59;60.97;100776.86;2134360;83;27658;-56
2022/06/12 01:19:05;;;;;;;10.72;7.92;;;;;;;16.54;61.00;100777.17;2134236;83;29450;-57
2022/06/12 01:23:00;;;;;;;12.85;8.35;;;;;;;16.48;60.95;100777.11;2134380;83;31891;-56
2022/06/12 01:26:28;;;;;;;13.10;9.35;;;;;;;16.35;61.32;100769.44;2155762;82;34047;-57
2022/06/12 01:29:48;;;;;;;10.88;8.75;;;;;;;16.35;61.32;100769.44;2095967;84;29369;-56
2022/06/12 01:32:56;;;;;;;12.15;7.90;;;;;;;16.27;61.36;100760.48;2092420;85;28388;-56
2022/06/12 01:36:14;;;;;;;10.53;7.70;;;;;;;16.21;61.57;100760.88;2092714;85;28648;-56
2022/06/12 01:39:28;;;;;;;11.88;8.48;;;;;;;16.16;61.64;100758.48;2091460;85;31896;-56
2022/06/12 01:42:51;;;;;;;13.90;8.98;;;;;;;16.13;61.75;100754.63;2092654;85;34110;-57
2022/06/12 01:46:16;;;;;;;14.45;8.50;;;;;;;16.13;61.87;100753.28;2092647;85;29338;-57
2022/06/12 01:49:36;;;;;;;13.43;8.60;;;;;;;16.13;62.17;100757.33;2092930;85;27712;-56
2022/06/12 01:52:55;;;;;;;12.60;8.95;;;;;;;16.15;62.38;100761.27;2056371;86;29940;-56
2022/06/12 01:56:12;;;;;;;14.70;9.48;;;;;;;16.15;62.38;100761.27;2048634;86;32139;-57
2022/06/12 01:59:38;;;;;;;15.50;9.45;;;;;;;16.17;62.45;100756.64;2053290;86;33157;-56
2022/06/12 02:02:48;;;;;;;14.90;9.43;;;;;;;16.20;62.58;100761.38;2031063;86;29357;-57
2022/06/12 02:06:16;;;;;;;11.50;8.48;;;;;;;16.20;62.71;100755.09;2053739;86;27752;-57
2022/06/12 02:09:23;;;;;;;16.35;9.30;;;;;;;16.21;62.86;100766.28;2050004;86;29414;-57
2022/06/12 02:16:14;;;;;;;12.28;8.25;;;;;;;16.24;63.16;100760.19;2036609;86;33383;-55
2022/06/12 02:19:27;;;;;;;9.15;7.85;;;;;;;16.28;62.98;100759.52;2068936;86;29361;-55
2022/06/12 02:22:33;;;;;;;13.98;9.03;;;;;;;16.30;62.94;100746.73;2069451;86;27721;-56
2022/06/12 02:25:39;;;;;;;10.40;7.70;;;;;;;16.33;62.88;100756.50;2069384;86;29551;-55
2022/06/12 02:28:58;;;;;;;14.23;8.20;;;;;;;16.36;62.97;100756.30;2097923;82;31417;-56
2022/06/12 02:32:06;;;;;;;12.20;8.23;;;;;;;16.37;63.03;100749.42;2153214;82;33364;-55
2022/06/12 02:35:16;;;;;;;13.58;8.30;;;;;;;16.40;63.00;100747.88;2153670;82;30272;-56
2022/06/12 02:38:30;;;;;;;9.25;7.42;;;;;;;16.37;63.06;100745.37;2153643;82;27702;-56
2022/06/12 02:41:44;;;;;;;9.85;7.90;;;;;;;16.45;63.08;100758.38;2153127;82;29699;-55
2022/06/12 02:45:16;;;;;;;13.18;8.60;;;;;;;16.47;63.10;100753.73;2151734;82;32343;-56
2022/06/12 02:48:19;;;;;;;12.80;7.85;;;;;;;16.53;63.11;100759.21;2149492;82;34110;-56
2022/06/12 02:51:38;;;;;;;10.88;8.35;;;;;;;16.53;63.11;100759.21;2149581;82;30232;-55
2022/06/12 02:54:54;;;;;;;10.53;8.40;;;;;;;16.55;63.18;100757.28;2148318;81;27646;-55
2022/06/12 02:58:25;;;;;;;10.60;7.83;;;;;;;16.57;63.13;100756.69;2148869;82;29149;-55
2022/06/12 03:01:42;;;;;;;12.23;7.70;;;;;;;16.61;63.11;100753.28;2149367;82;31174;-55
2022/06/12 03:05:04;;;;;;;9.50;7.28;;;;;;;16.54;63.42;100735.25;2149579;82;33032;-56
2022/06/12 03:08:16;;;;;;;10.60;7.75;;;;;;;16.54;63.42;100735.25;2149236;82;27638;-55
2022/06/12 03:11:27;;;;;;;10.35;8.08;;;;;;;16.69;63.22;100755.00;2150070;82;27736;-58
2022/06/12 03:14:29;;;;;;;11.95;8.05;;;;;;;16.73;63.26;100755.64;2182217;81;29984;-56
2022/06/12 03:17:32;;;;;;;11.47;8.07;;;;;;;16.77;63.34;100753.97;2182025;81;33139;-56
2022/06/12 03:20:48;;;;;;;9.63;7.65;;;;;;;16.82;63.20;100757.70;2182261;81;33035;-56
2022/06/12 03:24:15;;;;;;;11.45;8.45;;;;;;;16.92;63.45;100746.64;2181704;81;29380;-56
2022/06/12 03:27:39;;;;;;;10.63;8.35;;;;;;;16.99;63.08;100739.00;2182241;81;27627;-58
2022/06/12 03:30:49;;;;;;;14.75;8.65;;;;;;;16.99;63.08;100739.00;2150276;82;29147;-57
2022/06/12 03:34:20;;;;;;;12.43;8.80;;;;;;;17.07;63.30;100739.31;2148612;82;31455;-57
2022/06/12 03:37:30;;;;;;;12.25;8.75;;;;;;;17.14;63.25;100741.09;2149252;82;34253;-57
2022/06/12 03:41:09;;;;;;;12.95;8.30;;;;;;;17.23;63.21;100745.00;2149985;82;30145;-57
2022/06/12 03:44:47;;;;;;;9.68;8.65;;;;;;;17.25;63.21;100734.93;2150581;82;28317;-57
2022/06/12 03:48:15;;;;;;;11.18;8.73;;;;;;;17.39;63.11;100750.20;2105884;83;28680;-57
2022/06/12 03:51:41;;;;;;;14.28;9.00;;;;;;;17.48;62.99;100750.04;2128520;83;31222;-56
2022/06/12 03:54:49;;;;;;;;;;;;;;;17.58;62.90;100751.98;2145380;82;34199;-57
2022/06/12 03:57:54;;;;;;;12.82;8.33;;;;;;;17.69;62.95;100755.74;2156185;82;29445;-57
2022/06/12 04:00:57;;;;;;;14.30;8.53;;;;;;;17.78;62.85;100753.73;2156237;82;27733;-56
2022/06/12 04:04:00;;;;;;;11.90;8.00;;;;;;;17.88;62.98;100754.78;2156148;82;28648;-56
2022/06/12 04:07:06;;;;;;;12.85;8.48;;;;;;;18.01;62.89;100757.50;2156248;82;31084;-56
2022/06/12 04:10:12;;;;;;;11.38;8.60;;;;;;;18.15;62.82;100761.88;2156360;82;32952;-56
2022/06/12 04:13:16;;;;;;;14.95;8.48;;;;;;;18.31;62.81;100763.45;2156035;82;29989;-58
2022/06/12 04:16:27;;;;;;;15.00;8.58;;;;;;;18.48;62.57;100759.48;2119883;84;27791;-57
2022/06/12 04:19:31;;;;;;;11.38;8.60;;;;;;;18.66;62.42;100755.84;2119486;84;29425;-56
2022/06/12 04:22:47;;;;;;;10.77;8.37;;;;;;;18.88;62.24;100755.05;2096058;84;31226;-57
2022/06/12 04:26:00;;;;;;;13.95;8.53;;;;;;;19.11;61.85;100758.70;2163170;82;34141;-57
2022/06/12 04:29:13;;;;;;;13.32;8.35;;;;;;;19.37;61.55;100758.98;2163207;82;30407;-58
2022/06/12 04:32:17;;;;;;;11.90;8.15;;;;;;;19.58;61.33;100751.84;2162967;82;27686;-57
2022/06/12 04:35:21;;;;;;;14.83;8.43;;;;;;;19.83;61.09;100754.42;2164316;82;28806;-57
2022/06/12 04:38:27;;;;;;;10.28;7.22;;;;;;;20.06;60.64;100755.80;2163648;82;31885;-56
2022/06/12 04:41:32;;;;;;;11.25;7.87;;;;;;;20.27;60.29;100747.18;2164029;82;32963;-57
2022/06/12 04:44:36;;;;;;;9.38;6.40;;;;;;;20.52;60.03;100746.49;2180834;80;28767;-57
2022/06/12 04:47:38;;;;;;;7.67;5.20;;;;;;;20.77;59.54;100743.05;2202312;80;27664;-59
2022/06/12 04:50:42;;;;;;;8.15;5.87;;;;;;;21.12;58.78;100739.13;2151480;80;28680;-57
2022/06/12 04:53:47;;;;;;;9.60;6.15;;;;;;;21.38;58.46;100745.02;2202164;80;31910;-57
2022/06/12 04:56:50;;;;;;;9.75;5.58;;;;;;;21.58;58.03;100747.83;2202224;80;32972;-57
2022/06/12 04:59:53;;;;;;;9.85;5.55;;;;;;;21.75;57.25;100753.67;2202109;80;30238;-57
2022/06/12 05:02:55;;;;;;;13.20;6.12;;;;;;;21.92;56.98;100754.38;2202654;80;27630;-57
2022/06/12 05:05:58;;;;;;;16.80;6.78;;;;;;;22.12;56.41;100757.16;2202031;80;29930;-56
2022/06/12 05:09:01;;;;;;;6.55;5.50;;;;;;;22.31;55.91;100749.50;2202137;80;30797;-57
2022/06/12 05:12:08;;;;;;;7.78;5.42;;;;;;;22.56;55.50;100761.76;2201980;80;33744;-57
2022/06/12 05:15:13;;;;;;;7.80;5.28;;;;;;;22.97;55.14;100761.59;2202308;80;30199;-62
2022/06/12 05:18:17;;;;;;;6.60;5.12;;;;;;;23.11;54.61;100764.88;2202672;80;27921;-57
2022/06/12 05:21:21;;;;;;;8.63;5.33;;;;;;;23.20;54.10;100769.47;2202250;80;28637;-58
2022/06/12 05:24:25;;;;;;;7.07;5.13;;;;;;;23.23;53.73;100777.42;2201439;80;31059;-57
2022/06/12 05:27:28;;;;;;;9.60;4.72;;;;;;;23.25;53.37;100764.44;2202090;80;34177;-57
2022/06/12 05:30:33;;;;;;;8.15;5.00;;;;;;;23.31;52.92;100763.86;2202316;80;29097;-58
2022/06/12 05:33:37;;;;;;;9.30;4.62;;;;;;;23.42;52.79;100765.55;2202383;80;27638;-63
2022/06/12 05:36:40;;;;;;;5.97;4.97;;;;;;;23.55;52.53;100767.09;2202311;80;28662;-57
2022/06/12 05:39:43;;;;;;;8.73;4.53;;;;;;;23.67;52.13;100769.49;2202269;80;31288;-57
2022/06/12 05:42:46;;;;;;;6.80;4.65;;;;;;;23.88;51.80;100762.92;2202112;79;33056;-63
2022/06/12 05:45:49;;;;;;;6.22;4.78;;;;;;;24.11;51.67;100763.39;2201702;80;30158;-58
2022/06/12 05:48:51;;;;;;;5.72;4.45;;;;;;;24.28;51.01;100763.05;2201919;80;27712;-58
2022/06/12 05:51:54;;;;;;;6.83;4.53;;;;;;;24.47;50.64;100761.72;2201815;80;29150;-56
2022/06/12 05:54:57;;;;;;;6.78;4.90;;;;;;;24.77;50.25;100755.52;2201601;80;32253;-58
2022/06/12 05:58:00;;;;;;;6.30;4.17;;;;;;;25.37;50.13;100756.13;2202164;80;32959;-56
2022/06/12 06:01:03;;;;;;;12.98;4.60;;;;;;;25.83;49.38;100760.48;2202501;80;30289;-57
2022/06/12 06:04:07;;;;;;;7.25;4.47;;;;;;;26.39;48.36;100753.45;2202805;80;27711;-57
2022/06/12 06:07:10;;;;;;;7.80;4.65;;;;;;;26.91;47.94;100756.11;2202187;80;29319;-57
2022/06/12 06:10:17;;;;;;;6.47;4.55;;;;;;;27.20;47.29;100759.70;2202398;80;31076;-58
2022/06/12 06:13:20;;;;;;;8.25;4.97;;;;;;;27.41;46.57;100766.02;2202654;80;33749;-57
2022/06/12 06:16:23;;;;;;;7.75;4.45;;;;;;;27.67;46.15;100759.42;2202088;80;29496;-61
2022/06/12 06:19:25;;;;;;;8.88;5.25;;;;;;;27.98;45.38;100770.98;2202238;80;28295;-56
2022/06/12 06:22:27;;;;;;;5.78;4.25;;;;;;;28.13;45.07;100766.16;2202604;80;29047;-57
2022/06/12 06:25:31;;;;;;;7.03;4.40;;;;;;;28.46;44.80;100764.58;2202500;80;30895;-57
2022/06/12 06:28:33;;;;;;;6.33;4.45;;;;;;;28.85;44.02;100755.86;2202517;80;32958;-57
2022/06/12 06:31:36;;;;;;;8.43;5.58;;;;;;;29.12;43.42;100761.30;2202517;80;29705;-56
2022/06/12 06:34:40;;;;;;;8.28;5.05;;;;;;;29.23;43.12;100765.48;2202300;80;27662;-57
2022/06/12 06:37:42;;;;;;;12.28;5.30;;;;;;;29.35;42.82;100772.30;2202568;80;28649;-58
2022/06/12 06:40:44;;;;;;;7.53;4.58;;;;;;;29.54;42.17;100767.24;2201984;80;31051;-56
2022/06/12 06:47:08;;;;;;;7.12;4.92;;;;;;;30.77;41.32;100769.41;2202475;80;30577;-57
2022/06/12 06:50:13;;;;;;;10.35;5.47;;;;;;;30.99;40.49;100770.23;2202838;79;27613;-57
2022/06/12 06:53:17;;;;;;;5.22;4.72;;;;;;;31.04;40.31;100769.63;2202375;80;29923;-57
2022/06/12 06:56:21;;;;;;;9.55;4.92;;;;;;;31.61;39.78;100771.02;2193654;80;30998;-57
2022/06/12 06:59:22;;;;;;;9.73;4.63;;;;;;;31.98;39.28;100773.06;2105663;84;33094;-57
2022/06/12 07:02:24;;;;;;;5.65;4.35;;;;;;;32.43;38.46;100773.44;2142381;83;31438;-57
2022/06/12 07:05:27;;;;;;;4.90;4.42;;;;;;;32.97;38.31;100767.12;2178703;80;27677;-57
2022/06/12 07:08:31;;;;;;;6.95;4.67;;;;;;;33.15;37.17;100770.11;2178382;81;29918;-57
2022/06/12 07:11:34;;;;;;;7.12;4.20;;;;;;;33.29;37.09;100768.70;2178369;81;32312;-57
2022/06/12 07:14:36;;;;;;;6.08;4.25;;;;;;;33.30;36.49;100767.62;2178539;81;33222;-57
2022/06/12 07:17:39;;;;;;;5.92;4.67;;;;;;;33.39;36.10;100766.38;2178830;81;29298;-58
2022/06/12 07:20:49;;;;;;;6.65;4.83;;;;;;;33.24;35.51;100764.34;2178707;81;27656;-60
2022/06/12 07:23:51;;;;;;;4.72;4.28;;;;;;;32.96;35.22;100766.80;2157698;81;29923;-57
2022/06/12 07:26:53;;;;;;;4.87;4.37;;;;;;;32.95;35.25;100758.16;2178624;81;31100;-57
2022/06/12 07:29:56;;;;;;;4.55;4.12;;;;;;;33.39;35.11;100755.27;2178320;81;34285;-57
2022/06/12 07:32:57;;;;;;;5.47;4.20;;;;;;;33.93;34.67;100749.55;2178455;81;30192;-58
2022/06/12 07:36:00;;;;;;;7.75;4.53;;;;;;;34.35;33.91;100743.55;2178557;81;27616;-57
2022/06/12 07:39:05;;;;;;;6.42;3.87;;;;;;;34.82;33.79;100744.64;2178341;81;29976;-57
2022/06/12 07:42:08;;;;;;;6.17;4.00;;;;;;;35.33;33.39;100747.42;2159558;81;31684;-58
2022/06/12 07:45:11;;;;;;;3.98;3.40;;;;;;;35.72;32.78;100741.13;2178546;81;34152;-57
2022/06/12 07:48:13;;;;;;;5.42;3.95;;;;;;;36.12;31.84;100742.56;2178604;81;30363;-57
2022/06/12 07:51:18;;;;;;;3.80;3.42;;;;;;;36.39;31.43;100742.16;2178544;81;27675;-57
2022/06/12 07:54:21;;;;;;;4.25;3.72;;;;;;;36.62;30.86;100738.09;2178574;81;29851;-58
2022/06/12 07:57:24;;;;;;;6.72;4.17;;;;;;;36.77;30.56;100733.42;2159637;82;31336;-58
2022/06/12 08:00:26;;;;;;;4.40;3.92;;;;;;;37.00;30.20;100731.78;2179866;81;33229;-58
2022/06/12 08:03:29;;;;;;;9.25;3.92;;;;;;;37.21;29.88;100729.48;2170106;82;30520;-58
2022/06/12 08:06:32;;;;;;;4.50;3.20;;;;;;;37.34;29.30;100729.22;2170384;82;28175;-58
2022/06/12 08:09:34;;;;;;;5.27;3.50;;;;;;;37.56;28.68;100730.02;2170664;82;28735;-58
2022/06/12 08:12:38;;;;;;;4.03;2.83;;;;;;;37.55;28.09;100731.94;2170186;81;32159;-58
2022/06/12 08:15:45;;;;;;;4.05;3.10;;;;;;;37.58;28.05;100729.75;2170395;81;32948;-58
2022/06/12 08:18:49;;;;;;;9.85;3.80;;;;;;;37.63;27.89;100728.47;2170374;81;30352;-59
2022/06/12 08:21:51;;;;;;;7.75;3.90;;;;;;;37.69;27.59;100721.87;2158353;81;27711;-58
2022/06/12 08:24:53;;;;;;;5.20;3.60;;;;;;;37.74;27.63;100721.99;2113329;84;29535;-58
2022/06/12 08:27:56;;;;;;;7.53;3.70;;;;;;;37.77;27.04;100727.63;2145007;83;31165;-58
2022/06/12 08:30:59;;;;;;;4.37;3.47;;;;;;;37.74;27.14;100717.80;2113868;84;32413;-57
2022/06/12 08:34:04;;;;;;;;;;;;;;;37.79;26.69;100714.25;2097496;83;29687;-60
2022/06/12 08:37:16;;;;;;;3.77;3.22;;;;;;;37.65;26.25;100714.54;2144488;83;27696;-57
2022/06/12 08:40:55;;;;;;;4.87;2.72;;;;;;;37.56;26.19;100707.65;2113634;84;29483;-58
2022/06/12 08:44:37;;;;;;;7.72;2.85;;;;;;;37.56;25.97;100709.05;2144590;83;32344;-57
2022/06/12 08:47:56;;;;;;;4.42;2.98;;;;;;;37.51;25.82;100697.19;2113415;84;34165;-58
2022/06/12 08:51:12;;;;;;;4.20;2.60;;;;;;;37.62;25.62;100697.42;2145990;82;30192;-58
2022/06/12 08:54:23;;;;;;;9.80;2.52;;;;;;;37.57;25.27;100686.95;2170500;81;27676;-58
2022/06/12 08:57:59;;;;;;;5.10;2.60;;;;;;;37.60;25.44;100691.22;2165046;81;29606;-57
2022/06/12 09:01:01;;;;;;;5.65;2.80;;;;;;;37.46;24.92;100688.71;2091523;84;31501;-58
2022/06/12 09:04:04;;;;;;;3.70;3.00;;;;;;;36.72;24.37;100690.04;2079226;85;33831;-58
2022/06/12 09:07:16;;;;;;;2.92;2.58;;;;;;;36.47;24.70;100681.88;2066462;86;30660;-58
2022/06/12 09:10:38;;;;;;;3.37;2.87;;;;;;;36.37;25.18;100681.55;2087512;85;28362;-58
2022/06/12 09:13:58;;;;;;;2.83;2.62;;;;;;;36.31;25.09;100680.58;2085967;85;29904;-57
2022/06/12 09:17:17;;;;;;;5.03;2.80;;;;;;;36.13;25.14;100678.72;2087292;85;31410;-57
2022/06/12 09:20:59;;;;;;;4.62;2.30;;;;;;;36.06;25.64;100673.25;2087046;85;33093;-57
2022/06/12 09:24:27;;;;;;;4.17;2.70;;;;;;;36.10;25.68;100668.87;2087088;85;30106;-57
2022/06/12 09:28:03;;;;;;;3.37;2.50;;;;;;;36.17;25.16;100671.03;2086989;85;28296;-57
2022/06/12 09:31:31;;;;;;;3.52;2.33;;;;;;;36.09;25.05;100666.33;2061780;86;28861;-57
2022/06/12 09:34:48;;;;;;;9.00;2.60;;;;;;;35.96;25.40;100661.27;2061534;86;31876;-59
2022/06/12 09:38:21;;;;;;;3.00;2.02;;;;;;;36.03;25.12;100659.21;2096252;83;33987;-57
2022/06/12 09:41:41;;;;;;;5.05;2.02;;;;;;;36.08;24.82;100656.27;2133674;83;30531;-58
2022/06/12 09:45:00;;;;;;;4.72;2.05;;;;;;;35.98;24.93;100652.12;2133975;83;27680;-57
2022/06/12 09:48:23;;;;;;;3.10;1.90;;;;;;;35.92;24.93;100652.16;2133854;83;28442;-59
2022/06/12 09:51:39;;;;;;;2.77;2.05;;;;;;;35.63;24.37;100647.74;2133367;83;32382;-58
2022/06/12 09:54:51;;;;;;;2.72;1.98;;;;;;;35.52;24.54;100641.89;2133855;83;33189;-58
2022/06/12 09:58:10;;;;;;;2.90;1.77;;;;;;;35.50;24.52;100640.40;2123803;83;29893;-58
2022/06/12 10:01:22;;;;;;;2.47;1.60;;;;;;;35.51;24.58;100641.58;2127455;83;27745;-58
2022/06/12 10:04:49;;;;;;;3.25;1.50;;;;;;;35.45;24.23;100635.53;2160776;81;29965;-58
2022/06/12 10:08:20;;;;;;;2.02;1.82;;;;;;;35.30;24.00;100633.13;2186306;80;30998;-58
2022/06/12 10:11:45;;;;;;;3.83;1.77;;;;;;;35.28;24.16;100629.17;2063080;85;34315;-58
2022/06/12 10:14:54;;;;;;;5.28;1.90;;;;;;;35.43;24.43;100623.21;2060376;86;30197;-58
2022/06/12 10:18:03;;;;;;;9.48;2.95;;;;;;;35.59;24.07;100625.91;2060088;86;28263;-60
2022/06/12 10:21:12;;;;;;;22.90;2.12;;;;;;;35.58;23.87;100624.20;2047743;86;28643;-59
2022/06/12 10:24:14;;;;;;;2.33;1.80;;;;;;;35.52;23.45;100612.63;2025450;87;31045;-59
2022/06/12 10:27:19;;;;;;;6.55;1.95;;;;;;;35.51;23.54;100604.48;2025387;87;34133;-60
2022/06/12 10:30:42;;;;;;;3.72;1.55;;;;;;;35.34;23.46;100607.88;2025567;87;29348;-60
2022/06/12 10:33:57;;;;;;;4.05;2.15;;;;;;;35.23;23.55;100608.67;2025521;87;27582;-61
2022/06/12 10:37:19;;;;;;;4.30;1.72;;;;;;;35.02;23.71;100613.63;2024631;87;28762;-58
2022/06/12 10:40:27;;;;;;;5.05;2.00;;;;;;;34.86;23.63;100614.19;2025107;87;32244;-58
2022/06/12 10:43:34;;;;;;;2.77;2.08;;;;;;;34.67;23.86;100605.29;2025384;87;33383;-58
2022/06/12 10:46:35;;;;;;;5.40;1.82;;;;;;;34.50;24.13;100601.39;2024732;87;30241;-58
2022/06/12 10:49:37;;;;;;;4.97;1.70;;;;;;;34.34;24.39;100602.77;2110141;83;27732;-58
2022/06/12 10:52:53;;;;;;;3.77;1.90;;;;;;;34.21;24.57;100598.19;2176154;81;29909;-58
2022/06/12 10:56:23;;;;;;;5.20;2.10;;;;;;;34.03;24.71;100594.26;2166974;82;31060;-59
2022/06/12 10:59:36;;;;;;;2.05;1.75;;;;;;;33.83;24.80;100591.59;2201263;80;33337;-61
2022/06/12 11:03:07;;;;;;;1.83;1.50;;;;;;;33.44;24.57;100595.73;2202492;80;30647;-59
2022/06/12 11:06:17;;;;;;;4.15;1.50;;;;;;;33.12;25.04;100597.02;2202312;80;27616;-58
2022/06/12 11:09:40;;;;;;;2.02;1.70;;;;;;;32.94;25.10;100588.01;2202586;80;28650;-58
2022/06/12 11:12:53;;;;;;;2.10;1.80;;;;;;;32.76;25.10;100582.25;2202458;80;31833;-58
2022/06/12 11:16:21;;;;;;;2.90;1.93;;;;;;;32.65;25.26;100583.24;2202537;80;33805;-59
2022/06/12 11:19:50;;;;;;;2.00;1.60;;;;;;;32.52;25.44;100578.56;2144427;83;30503;-58
2022/06/12 11:22:58;;;;;;;3.47;1.62;;;;;;;32.41;25.39;100575.06;2071472;85;27746;-59
2022/06/12 11:26:39;;;;;;;4.17;1.60;;;;;;;32.30;25.62;100572.39;2045131;87;28660;-61
2022/06/12 11:29:52;;;;;;;3.35;1.92;;;;;;;32.22;25.35;100567.02;2045834;87;31882;-61
2022/06/12 11:33:14;;;;;;;2.87;1.95;;;;;;;32.19;25.37;100564.66;2045557;87;33157;-66
2022/06/12 11:36:27;;;;;;;2.77;1.77;;;;;;;32.28;25.56;100560.66;2065080;85;30570;-65
2022/06/12 11:40:04;;;;;;;1.70;1.60;;;;;;;32.51;25.64;100553.83;2001707;88;27756;-58
2022/06/12 11:43:26;;;;;;;2.50;1.42;;;;;;;32.73;25.61;100553.03;2001348;88;30135;-58
2022/06/12 11:46:50;;;;;;;1.62;1.52;;;;;;;32.89;24.92;100554.49;2001402;88;31092;-58
2022/06/12 11:50:18;;;;;;;1.47;1.25;;;;;;;33.10;24.90;100553.34;1999932;88;33999;-58
2022/06/12 11:53:43;;;;;;;1.80;1.40;;;;;;;33.25;24.71;100550.30;1979899;88;30630;-58
2022/06/12 11:57:14;;;;;;;3.47;1.42;;;;;;;33.45;24.75;100550.78;1990018;89;27706;-58
2022/06/12 12:00:24;;;;;;;3.83;1.92;;;;;;;33.51;24.50;100550.42;2001877;88;28924;-61
2022/06/12 12:03:52;;;;;;;2.95;1.50;;;;;;;33.36;24.17;100545.14;1989970;89;31514;-59
2022/06/12 12:07:12;;;;;;;2.98;1.47;;;;;;;33.22;24.39;100542.41;1996419;89;33053;-58
2022/06/12 12:10:43;;;;;;;3.90;3.52;;;;;;;33.03;24.33;100537.27;1975624;90;29358;-59
2022/06/12 12:13:53;;;;;;;2.55;2.20;;;;;;;32.82;24.69;100530.94;2017796;88;28132;-58
2022/06/12 12:17:03;;;;;;;2.42;1.52;;;;;;;32.65;24.84;100522.22;2106182;82;28499;-58
2022/06/12 12:20:16;;;;;;;1.92;1.47;;;;;;;32.51;24.85;100519.99;2165183;81;31017;-58
2022/06/12 12:23:25;;;;;;;3.08;1.90;;;;;;;32.38;24.88;100516.70;2164573;82;32989;-58
2022/06/12 12:26:33;;;;;;;4.53;2.12;;;;;;;32.30;25.12;100518.84;2165149;81;29473;-59
2022/06/12 12:29:36;;;;;;;2.00;1.22;;;;;;;32.32;25.14;100509.27;2165369;81;27683;-58
2022/06/12 12:32:38;;;;;;;2.22;1.60;;;;;;;32.26;24.80;100509.59;2140707;82;29136;-60
2022/06/12 12:42:33;;;;;;;2.72;2.25;;;;;;;32.20;25.26;100497.94;2165070;81;30639;-59
2022/06/12 12:45:37;;;;;;;2.35;1.60;;;;;;;32.16;24.95;100489.72;2165219;81;27636;-60
2022/06/12 12:48:42;;;;;;;2.80;1.70;;;;;;;32.04;25.14;100491.45;2165427;82;29511;-65
2022/06/12 12:51:44;;;;;;;3.85;1.42;;;;;;;31.92;25.15;100491.23;2164997;81;31067;-60
2022/06/12 12:54:58;;;;;;;4.70;2.10;;;;;;;31.89;25.45;100493.03;2139959;83;34033;-63
2022/06/12 12:58:14;;;;;;;2.65;1.95;;;;;;;31.88;25.62;100492.20;2140879;81;29748;-59
2022/06/12 13:01:26;;;;;;;2.47;1.70;;;;;;;31.78;25.19;100487.08;2141501;83;27683;-62
2022/06/12 13:04:34;;;;;;;2.47;1.80;;;;;;;31.71;25.49;100488.97;2141519;82;29871;-61
2022/06/12 13:07:57;;;;;;;2.20;1.52;;;;;;;31.60;25.28;100484.91;2143643;83;31809;-58
2022/06/12 13:11:23;;;;;;;3.58;1.80;;;;;;;31.60;25.70;100473.83;2143017;81;34207;-65
2022/06/12 13:15:01;;;;;;;3.22;1.42;;;;;;;31.72;25.78;100473.22;2143375;82;30007;-64
2022/06/12 13:18:26;;;;;;;2.05;1.82;;;;;;;31.81;25.79;100463.11;2143566;80;27657;-57
2022/06/12 13:22:15;;;;;;;3.55;1.20;;;;;;;31.79;26.06;100464.36;2143071;82;29493;-65
2022/06/12 13:25:21;;;;;;;2.08;1.65;;;;;;;31.80;25.47;100455.86;2142728;82;32250;-62
2022/06/12 13:28:28;;;;;;;3.62;1.67;;;;;;;31.76;25.86;100457.34;2143552;83;32886;-59
2022/06/12 13:31:33;;;;;;;3.67;1.70;;;;;;;31.71;25.81;100456.28;2143622;83;29331;-61
2022/06/12 13:34:33;;;;;;;1.87;1.42;;;;;;;31.59;25.53;100457.41;2142750;83;27586;-60
2022/06/12 13:37:37;;;;;;;2.00;1.45;;;;;;;31.50;25.75;100448.45;2178696;81;29691;-61
2022/06/12 13:40:41;;;;;;;2.37;2.00;;;;;;;31.48;25.90;100440.37;2143512;83;31860;-65
2022/06/12 13:43:43;;;;;;;1.55;1.45;;;;;;;31.48;25.69;100439.50;2143643;82;32951;-58
2022/06/12 13:46:45;;;;;;;1.50;1.35;;;;;;;31.40;25.34;100439.72;2142595;83;29347;-66
2022/06/12 13:50:05;;;;;;;2.58;1.62;;;;;;;31.27;25.24;100440.02;2178373;81;27749;-62
2022/06/12 13:53:18;;;;;;;2.17;1.30;;;;;;;31.11;24.96;100432.08;2177741;81;28750;-63
2022/06/12 13:56:21;;;;;;;1.75;1.45;;;;;;;30.95;24.71;100426.38;2178749;81;31857;-66
2022/06/12 13:59:26;;;;;;;1.72;1.60;;;;;;;30.72;24.38;100425.66;2178302;81;33549;-63
2022/06/12 14:02:34;;;;;;;1.50;1.20;;;;;;;30.51;24.68;100417.44;2178626;81;29391;-66
2022/06/12 14:05:40;;;;;;;2.05;1.40;;;;;;;30.41;24.94;100413.16;2178741;81;27596;-59
2022/06/12 14:08:43;;;;;;;1.35;1.25;;;;;;;30.37;24.96;100411.85;2178206;81;29544;-63
2022/06/12 14:11:47;;;;;;;1.75;1.65;;;;;;;30.29;24.94;100410.11;2178775;81;31004;-65
2022/06/12 14:14:50;;;;;;;1.93;1.47;;;;;;;30.20;25.23;100404.95;2178721;81;32984;-64
2022/06/12 14:17:55;;;;;;;3.45;1.35;;;;;;;30.10;25.67;100400.66;2159624;81;34039;-64
2022/06/12 14:21:20;;;;;;;2.50;1.50;;;;;;;29.96;25.96;100390.03;2105510;84;27683;-66
2022/06/12 14:24:29;;;;;;;1.95;1.17;;;;;;;29.79;25.87;100392.20;2105344;84;30788;-62
2022/06/12 14:27:37;;;;;;;3.35;1.92;;;;;;;29.64;26.08;100379.89;2140466;83;31027;-66
2022/06/12 14:30:48;;;;;;;2.58;2.10;;;;;;;29.58;26.01;100377.08;2139579;83;32997;-61
2022/06/12 14:34:04;;;;;;;3.05;1.65;;;;;;;29.50;26.41;100376.16;2140481;83;29348;-65
2022/06/12 14:37:24;;;;;;;1.85;1.40;;;;;;;29.50;26.51;100372.02;2137155;83;27700;-65
2022/06/12 14:40:37;;;;;;;3.22;2.08;;;;;;;29.46;26.43;100369.32;2140640;83;28821;-66
2022/06/12 14:43:39;;;;;;;2.58;1.52;;;;;;;29.44;26.69;100364.55;2116402;82;31280;-65
2022/06/12 14:46:41;;;;;;;8.15;1.42;;;;;;;29.43;27.02;100365.61;2112784;84;34186;-66
2022/06/12 14:49:44;;;;;;;5.37;1.50;;;;;;;29.40;27.19;100370.14;2112830;84;29799;-61
2022/06/12 14:52:47;;;;;;;4.23;2.50;;;;;;;29.43;27.37;100369.75;2113131;84;28415;-66
2022/06/12 14:55:50;;;;;;;3.20;1.77;;;;;;;29.43;26.64;100361.98;2113274;82;28493;-67
2022/06/12 14:58:52;;;;;;;1.27;1.17;;;;;;;29.45;26.70;100366.27;2109205;83;32408;-66
2022/06/12 15:01:54;;;;;;;2.00;1.62;;;;;;;29.55;27.11;100364.00;2165045;81;32777;-65